createdAt,value
2023-03-17T00:00:51.243Z,0.09
2023-03-17T00:03:25.628Z,0.10
2023-03-17T00:05:58.259Z,0.09
2023-03-17T00:08:33.020Z,0.09
2023-03-17T00:11:03.785Z,0.11
2023-03-17T00:13:37.608Z,0.12
2023-03-17T00:16:18.178Z,0.13
2023-03-17T00:18:50.668Z,0.13
2023-03-17T00:21:27.036Z,0.14
2023-03-17T00:23:58.639Z,0.14
2023-03-17T00:26:29.469Z,0.13
2023-03-17T00:29:01.108Z,0.13
2023-03-17T00:31:32.617Z,0.13
2023-03-17T00:34:03.162Z,0.12
2023-03-17T00:36:35.781Z,0.12
2023-03-17T00:41:43.593Z,0.08
2023-03-17T00:44:14.545Z,0.08
2023-03-17T00:46:46.485Z,0.07
2023-03-17T00:49:21.214Z,0.06
2023-03-17T00:51:52.994Z,0.04
2023-03-17T00:54:25.222Z,0.01
2023-03-17T00:56:55.693Z,-0.02
2023-03-17T00:59:30.893Z,-0.04
2023-03-17T01:02:01.744Z,-0.04
2023-03-17T01:04:34.301Z,-0.04
2023-03-17T01:07:05.809Z,-0.04
2023-03-17T01:09:36.290Z,-0.06
2023-03-17T01:12:08.055Z,-0.07
2023-03-17T01:14:41.281Z,-0.07
2023-03-17T01:17:20.358Z,-0.05
2023-03-17T01:19:50.764Z,-0.04
2023-03-17T01:22:21.597Z,-0.01
2023-03-17T01:24:53.377Z,0.02
2023-03-17T01:27:24.215Z,0.03
2023-03-17T01:30:00.361Z,0.02
2023-03-17T01:32:31.690Z,0.03
2023-03-17T01:35:06.866Z,0.04
2023-03-17T01:37:38.006Z,0.05
2023-03-17T01:40:14.366Z,0.06
2023-03-17T01:42:52.516Z,0.06
2023-03-17T01:45:58.611Z,0.06
2023-03-17T01:48:33.586Z,0.06
2023-03-17T01:51:06.283Z,0.04
2023-03-17T01:53:38.938Z,0.03
2023-03-17T01:56:12.489Z,-0.02
2023-03-17T01:58:43.090Z,-0.06
2023-03-17T02:01:16.815Z,-0.10
2023-03-17T02:03:47.203Z,-0.12
2023-03-17T02:06:18.178Z,-0.16
2023-03-17T02:08:49.805Z,-0.19
2023-03-17T02:11:21.167Z,-0.23
2023-03-17T02:13:52.475Z,-0.27
2023-03-17T02:16:25.053Z,-0.32
2023-03-17T02:18:56.270Z,-0.36
2023-03-17T02:21:41.670Z,-0.40
2023-03-17T02:24:21.928Z,-0.44
2023-03-17T02:27:06.641Z,-0.48
2023-03-17T02:29:40.516Z,-0.51
2023-03-17T02:32:12.178Z,-0.54
2023-03-17T02:34:42.524Z,-0.55
2023-03-17T02:37:16.285Z,-0.56
2023-03-17T02:39:47.152Z,-0.58
2023-03-17T02:42:18.072Z,-0.58
2023-03-17T02:44:49.591Z,-0.57
2023-03-17T02:47:26.746Z,-0.57
2023-03-17T02:49:57.976Z,-0.60
2023-03-17T02:52:43.149Z,-0.58
2023-03-17T02:55:14.207Z,-0.62
2023-03-17T02:57:44.650Z,-0.65
2023-03-17T03:00:16.434Z,-0.68
2023-03-17T03:02:51.048Z,-0.70
2023-03-17T03:05:23.173Z,-0.73
2023-03-17T03:07:53.628Z,-0.77
2023-03-17T03:10:23.922Z,-0.80
2023-03-17T03:12:54.229Z,-0.82
2023-03-17T03:15:25.529Z,-0.84
2023-03-17T03:17:55.808Z,-0.86
2023-03-17T03:20:26.315Z,-0.88
2023-03-17T03:22:56.584Z,-0.91
2023-03-17T03:25:27.051Z,-0.91
2023-03-17T03:27:58.619Z,-0.93
2023-03-17T03:30:30.496Z,-0.95
2023-03-17T03:33:01.203Z,-0.96
2023-03-17T03:35:32.278Z,-0.95
2023-03-17T03:38:03.752Z,-0.95
2023-03-17T03:40:34.074Z,-0.95
2023-03-17T03:43:16.309Z,-0.94
2023-03-17T03:45:52.105Z,-0.93
2023-03-17T03:48:25.947Z,-0.92
2023-03-17T03:50:59.870Z,-0.93
2023-03-17T03:53:31.215Z,-0.93
2023-03-17T03:56:02.032Z,-0.93
2023-03-17T03:58:32.408Z,-0.95
2023-03-17T04:01:07.369Z,-0.95
2023-03-17T04:03:38.204Z,-0.96
2023-03-17T04:06:09.209Z,-0.97
2023-03-17T04:08:39.577Z,-0.96
2023-03-17T04:11:09.998Z,-0.97
2023-03-17T04:13:41.137Z,-0.98
2023-03-17T04:16:12.392Z,-0.98
2023-03-17T04:18:42.838Z,-1.00
2023-03-17T04:21:13.769Z,-1.02
2023-03-17T04:23:44.131Z,-1.04
2023-03-17T04:26:14.648Z,-1.03
2023-03-17T04:28:45.089Z,-1.03
2023-03-17T04:31:17.694Z,-1.02
2023-03-17T04:33:48.066Z,-1.01
2023-03-17T04:36:20.950Z,-1.01
2023-03-17T04:38:52.700Z,-1.02
2023-03-17T04:41:23.206Z,-1.03
2023-03-17T04:43:56.501Z,-1.04
2023-03-17T04:46:27.393Z,-1.04
2023-03-17T04:48:58.430Z,-1.04
2023-03-17T04:51:29.241Z,-1.05
2023-03-17T04:54:00.704Z,-1.05
2023-03-17T04:56:32.088Z,-1.04
2023-03-17T04:59:03.025Z,-1.04
2023-03-17T05:01:34.651Z,-1.03
2023-03-17T05:04:05.278Z,-1.04
2023-03-17T05:06:35.884Z,-1.05
2023-03-17T05:09:06.928Z,-1.06
2023-03-17T05:11:37.373Z,-1.05
2023-03-17T05:14:07.681Z,-1.03
2023-03-17T05:16:38.062Z,-1.00
2023-03-17T05:19:08.545Z,-0.99
2023-03-17T05:21:40.973Z,-0.96
2023-03-17T05:24:11.784Z,-0.94
2023-03-17T05:26:42.407Z,-0.92
2023-03-17T05:29:12.827Z,-0.89
2023-03-17T05:31:43.704Z,-0.85
2023-03-17T05:34:15.463Z,-0.81
2023-03-17T05:36:46.435Z,-0.76
2023-03-17T05:39:18.508Z,-0.73
2023-03-17T05:41:50.347Z,-0.68
2023-03-17T05:44:20.898Z,-0.63
2023-03-17T05:46:51.538Z,-0.58
2023-03-17T05:49:21.931Z,-0.53
2023-03-17T05:51:52.604Z,-0.46
2023-03-17T05:54:25.680Z,-0.39
2023-03-17T05:56:56.060Z,-0.32
2023-03-17T05:59:27.827Z,-0.27
2023-03-17T06:01:58.812Z,-0.21
2023-03-17T06:04:29.119Z,-0.15
2023-03-17T06:06:59.828Z,-0.11
2023-03-17T06:09:30.177Z,-0.05
2023-03-17T06:12:00.755Z,0.02
2023-03-17T06:14:33.490Z,0.09
2023-03-17T06:17:03.931Z,0.16
2023-03-17T06:19:34.345Z,0.23
2023-03-17T06:22:04.851Z,0.32
2023-03-17T06:24:35.394Z,0.40
2023-03-17T06:27:06.616Z,0.49
2023-03-17T06:29:37.398Z,0.56
2023-03-17T06:32:19.794Z,0.64
2023-03-17T06:34:51.550Z,0.72
2023-03-17T06:37:24.848Z,0.80
2023-03-17T06:39:58.555Z,0.88
2023-03-17T06:42:29.376Z,0.96
2023-03-17T06:44:59.737Z,1.03
2023-03-17T06:47:30.078Z,1.14
2023-03-17T06:50:00.434Z,1.28
2023-03-17T06:52:30.818Z,1.36
2023-03-17T06:55:01.204Z,1.45
2023-03-17T06:57:32.028Z,1.55
2023-03-17T07:00:02.432Z,1.76
2023-03-17T07:02:33.718Z,2.12
2023-03-17T07:05:08.296Z,2.31
2023-03-17T07:07:39.568Z,2.20
2023-03-17T07:10:17.329Z,2.11
2023-03-17T07:12:51.858Z,2.05
2023-03-17T07:15:22.180Z,2.01
2023-03-17T07:17:52.594Z,2.02
2023-03-17T07:20:23.412Z,2.01
2023-03-17T07:22:53.829Z,2.02
2023-03-17T07:25:24.146Z,2.06
2023-03-17T07:27:54.820Z,2.12
2023-03-17T07:30:26.575Z,2.15
2023-03-17T07:32:58.205Z,2.17
2023-03-17T07:35:29.038Z,2.28
2023-03-17T07:38:00.215Z,2.49
2023-03-17T07:40:30.874Z,2.62
2023-03-17T07:43:01.821Z,2.66
2023-03-17T07:45:33.374Z,2.66
2023-03-17T07:48:05.143Z,2.64
2023-03-17T07:50:36.860Z,2.70
2023-03-17T07:53:07.266Z,2.82
2023-03-17T07:55:39.111Z,2.94
2023-03-17T07:58:11.821Z,3.06
2023-03-17T08:00:45.224Z,3.16
2023-03-17T08:03:15.634Z,3.23
2023-03-17T08:05:49.625Z,3.29
2023-03-17T08:08:21.434Z,3.33
2023-03-17T08:10:52.510Z,3.39
2023-03-17T08:13:23.352Z,3.46
2023-03-17T08:15:54.408Z,3.53
2023-03-17T08:18:24.826Z,3.60
2023-03-17T08:20:55.447Z,3.66
2023-03-17T08:23:28.574Z,3.74
2023-03-17T08:26:03.110Z,3.87
2023-03-17T08:28:34.597Z,4.04
2023-03-17T08:31:13.754Z,4.17
2023-03-17T08:33:47.398Z,4.25
2023-03-17T08:36:18.984Z,4.31
2023-03-17T08:38:50.620Z,4.42
2023-03-17T08:41:23.778Z,4.49
2023-03-17T08:43:54.475Z,4.58
2023-03-17T08:46:26.999Z,4.66
2023-03-17T08:48:59.278Z,4.73
2023-03-17T08:51:31.712Z,4.79
2023-03-17T08:54:02.199Z,4.86
2023-03-17T08:56:32.586Z,4.95
2023-03-17T08:59:02.907Z,5.01
2023-03-17T09:01:34.869Z,5.08
2023-03-17T09:04:05.992Z,5.19
2023-03-17T09:06:40.827Z,5.28
2023-03-17T09:09:12.924Z,5.34
2023-03-17T09:11:43.379Z,5.38
2023-03-17T09:14:15.365Z,5.45
2023-03-17T09:16:48.972Z,5.57
2023-03-17T09:19:19.506Z,5.69
2023-03-17T09:21:51.013Z,5.77
2023-03-17T09:24:21.996Z,5.85
2023-03-17T09:26:52.329Z,5.90
2023-03-17T09:29:22.666Z,5.95
2023-03-17T09:31:52.990Z,6.07
2023-03-17T09:34:25.104Z,6.19
2023-03-17T09:36:55.610Z,6.29
2023-03-17T09:39:27.516Z,6.42
2023-03-17T09:42:18.705Z,6.58
2023-03-17T09:45:12.392Z,6.76
2023-03-17T09:47:59.305Z,6.94
2023-03-17T09:50:34.254Z,7.13
2023-03-17T09:53:06.817Z,7.30
2023-03-17T09:55:38.815Z,7.44
2023-03-17T09:58:15.775Z,7.56
2023-03-17T10:00:45.070Z,7.62
2023-03-17T10:03:16.185Z,7.69
2023-03-17T10:05:46.908Z,7.79
2023-03-17T10:08:31.345Z,7.89
2023-03-17T10:11:13.515Z,7.94
2023-03-17T10:13:55.700Z,8.01
2023-03-17T10:16:35.753Z,7.99
2023-03-17T10:19:16.044Z,8.00
2023-03-17T10:21:54.529Z,8.04
2023-03-17T10:24:27.019Z,8.06
2023-03-17T10:27:03.005Z,8.07
2023-03-17T10:29:33.625Z,8.08
2023-03-17T10:32:04.532Z,8.10
2023-03-17T10:34:38.198Z,8.18
2023-03-17T10:37:13.624Z,8.30
2023-03-17T10:39:49.679Z,8.38
2023-03-17T10:42:26.051Z,8.46
2023-03-17T10:44:58.486Z,8.54
2023-03-17T10:47:38.088Z,8.62
2023-03-17T10:50:22.904Z,8.71
2023-03-17T10:52:59.396Z,8.83
2023-03-17T10:55:34.015Z,8.98
2023-03-17T10:58:15.364Z,9.14
2023-03-17T11:00:56.636Z,9.32
2023-03-17T11:03:30.318Z,9.45
2023-03-17T11:06:04.947Z,9.57
2023-03-17T11:08:40.366Z,9.72
2023-03-17T11:11:26.295Z,9.80
2023-03-17T11:14:05.075Z,9.85
2023-03-17T11:16:38.451Z,9.88
2023-03-17T11:19:16.106Z,9.92
2023-03-17T11:21:57.239Z,9.98
2023-03-17T11:24:33.287Z,10.09
2023-03-17T11:27:11.053Z,10.15
2023-03-17T11:29:54.468Z,10.29
2023-03-17T11:32:31.991Z,10.41
2023-03-17T11:35:39.291Z,10.41
2023-03-17T11:38:29.074Z,10.45
2023-03-17T11:41:20.913Z,10.57
2023-03-17T11:44:06.828Z,10.76
2023-03-17T11:46:44.950Z,10.83
2023-03-17T11:49:20.445Z,10.87
2023-03-17T11:51:59.215Z,10.95
2023-03-17T11:54:39.990Z,11.08
2023-03-17T11:57:17.202Z,11.22
2023-03-17T11:59:53.363Z,11.26
2023-03-17T12:02:30.725Z,11.39
2023-03-17T12:05:06.150Z,11.50
2023-03-17T12:07:40.221Z,11.58
2023-03-17T12:10:22.824Z,11.65
2023-03-17T12:12:58.349Z,11.72
2023-03-17T12:15:36.261Z,11.88
2023-03-17T12:18:12.080Z,12.00
2023-03-17T12:20:52.061Z,12.02
2023-03-17T12:23:30.344Z,12.12
2023-03-17T12:26:06.102Z,12.34
2023-03-17T12:28:43.694Z,12.57
2023-03-17T12:31:18.695Z,12.76
2023-03-17T12:33:57.763Z,13.05
2023-03-17T12:36:29.225Z,13.43
2023-03-17T12:39:05.584Z,14.58
2023-03-17T12:41:59.764Z,15.97
2023-03-17T12:44:49.554Z,17.29
2023-03-17T12:47:46.178Z,18.42
2023-03-17T12:50:31.199Z,19.84
2023-03-17T12:53:21.449Z,20.96
2023-03-17T12:55:55.815Z,21.62
2023-03-17T12:58:32.357Z,22.01
2023-03-17T13:01:08.987Z,22.51
2023-03-17T13:03:58.332Z,22.99
2023-03-17T13:06:35.212Z,23.25
2023-03-17T13:09:31.499Z,23.54
2023-03-17T13:12:04.002Z,24.21
2023-03-17T13:14:44.769Z,24.73
2023-03-17T13:17:35.971Z,24.12
2023-03-17T13:20:20.120Z,23.94
2023-03-17T13:23:13.014Z,23.59
2023-03-17T13:25:53.943Z,23.57
2023-03-17T13:28:41.413Z,23.86
2023-03-17T13:31:29.515Z,23.95
2023-03-17T13:34:12.934Z,23.77
2023-03-17T13:36:57.974Z,23.58
2023-03-17T13:39:54.301Z,23.29
2023-03-17T13:42:38.728Z,23.38
2023-03-17T13:45:27.194Z,23.20
2023-03-17T13:48:28.425Z,23.58
2023-03-17T13:51:04.620Z,24.14
2023-03-17T13:53:41.196Z,24.23
2023-03-17T13:56:23.227Z,24.38
2023-03-17T13:59:14.237Z,24.45
2023-03-17T14:01:52.698Z,24.18
2023-03-17T14:04:28.110Z,23.95
2023-03-17T14:07:06.970Z,24.13
2023-03-17T14:09:41.431Z,23.67
2023-03-17T14:12:18.858Z,23.61
2023-03-17T14:14:56.649Z,23.47
2023-03-17T14:17:33.283Z,23.69
2023-03-17T14:20:08.468Z,23.83
2023-03-17T14:22:45.914Z,23.94
2023-03-17T14:25:20.950Z,24.40
2023-03-17T14:27:54.817Z,24.88
2023-03-17T14:30:27.900Z,24.81
2023-03-17T14:33:03.969Z,25.16
2023-03-17T14:35:37.452Z,25.27
2023-03-17T14:38:19.735Z,24.75
2023-03-17T14:40:50.514Z,22.67
2023-03-17T14:43:20.928Z,20.87
2023-03-17T14:45:59.795Z,19.37
2023-03-17T14:48:32.271Z,18.29
2023-03-17T14:51:06.928Z,17.50
2023-03-17T14:53:40.648Z,16.93
2023-03-17T14:56:11.561Z,16.37
2023-03-17T14:58:45.645Z,15.87
2023-03-17T15:01:19.150Z,15.36
2023-03-17T15:03:57.747Z,14.92
2023-03-17T15:06:29.608Z,14.59
2023-03-17T15:09:04.074Z,14.39
2023-03-17T15:11:42.649Z,14.23
2023-03-17T15:14:21.449Z,14.03
2023-03-17T15:16:54.220Z,13.81
2023-03-17T15:19:29.015Z,13.61
2023-03-17T15:22:00.543Z,13.48
2023-03-17T15:24:41.552Z,13.36
2023-03-17T15:27:17.319Z,13.21
2023-03-17T15:29:48.458Z,13.09
2023-03-17T15:32:21.353Z,12.94
2023-03-17T15:34:53.159Z,12.83
2023-03-17T15:37:26.497Z,12.73
2023-03-17T15:39:57.467Z,12.62
2023-03-17T15:42:30.989Z,12.56
2023-03-17T15:45:02.823Z,12.48
2023-03-17T15:47:36.686Z,12.40
2023-03-17T15:50:17.903Z,12.29
2023-03-17T15:52:48.234Z,12.19
2023-03-17T15:55:21.884Z,12.09
2023-03-17T15:57:55.923Z,11.97
2023-03-17T16:00:29.720Z,11.83
2023-03-17T16:03:05.316Z,11.74
2023-03-17T16:05:37.110Z,11.62
2023-03-17T16:08:10.928Z,11.51
2023-03-17T16:10:41.739Z,11.38
2023-03-17T16:13:12.175Z,11.29
2023-03-17T16:15:44.595Z,11.17
2023-03-17T16:18:21.209Z,11.07
2023-03-17T16:20:53.445Z,10.96
2023-03-17T16:23:27.660Z,10.84
2023-03-17T16:26:11.763Z,10.75
2023-03-17T16:28:47.686Z,10.62
2023-03-17T16:31:21.604Z,10.53
2023-03-17T16:33:53.528Z,10.44
2023-03-17T16:36:25.296Z,10.34
2023-03-17T16:38:58.849Z,10.26
2023-03-17T16:41:30.640Z,10.16
2023-03-17T16:44:03.264Z,10.07
2023-03-17T16:46:36.176Z,10.00
2023-03-17T16:49:08.443Z,9.91
2023-03-17T16:51:38.876Z,9.82
2023-03-17T16:54:09.424Z,9.74
2023-03-17T16:56:42.804Z,9.64
2023-03-17T16:59:22.186Z,9.55
2023-03-17T17:01:54.962Z,9.45
2023-03-17T17:04:25.742Z,9.38
2023-03-17T17:06:56.763Z,9.29
2023-03-17T17:09:27.485Z,9.21
2023-03-17T17:11:58.574Z,9.14
2023-03-17T17:17:37.625Z,8.97
2023-03-17T17:20:14.792Z,8.91
2023-03-17T17:22:45.642Z,8.85
2023-03-17T17:25:17.054Z,8.76
2023-03-17T17:27:48.412Z,8.69
2023-03-17T17:30:22.189Z,8.64
2023-03-17T17:32:52.551Z,8.58
2023-03-17T17:35:23.349Z,8.51
2023-03-17T17:37:54.393Z,8.45
2023-03-17T17:40:26.360Z,8.38
2023-03-17T17:42:57.705Z,8.31
2023-03-17T17:45:28.443Z,8.24
2023-03-17T17:47:58.940Z,8.19
2023-03-17T17:50:31.359Z,8.11
2023-03-17T17:53:05.453Z,8.06
2023-03-17T17:55:36.402Z,8.01
2023-03-17T17:58:06.845Z,7.96
2023-03-17T18:00:37.599Z,7.91
2023-03-17T18:03:08.033Z,7.86
2023-03-17T18:05:38.701Z,7.81
2023-03-17T18:08:09.142Z,7.76
2023-03-17T18:10:39.864Z,7.69
2023-03-17T18:13:11.195Z,7.63
2023-03-17T18:15:48.777Z,7.59
2023-03-17T18:18:21.523Z,7.54
2023-03-17T18:20:54.093Z,7.48
2023-03-17T18:23:30.029Z,7.44
2023-03-17T18:26:03.749Z,7.39
2023-03-17T18:28:35.785Z,7.36
2023-03-17T18:31:14.300Z,7.31
2023-03-17T18:33:49.473Z,7.28
2023-03-17T18:36:24.047Z,7.25
2023-03-17T18:38:58.509Z,7.22
2023-03-17T18:41:30.480Z,7.17
2023-03-17T18:44:04.341Z,7.14
2023-03-17T18:46:46.737Z,7.10
2023-03-17T18:49:25.621Z,7.06
2023-03-17T18:52:00.025Z,7.02
2023-03-17T18:54:32.095Z,7.00
2023-03-17T18:57:20.668Z,6.97
2023-03-17T18:59:52.862Z,6.93
2023-03-17T19:02:27.342Z,6.90
2023-03-17T19:05:01.596Z,6.85
2023-03-17T19:07:32.118Z,6.82
2023-03-17T19:10:04.505Z,6.77
2023-03-17T19:12:35.224Z,6.74
2023-03-17T19:15:06.658Z,6.70
2023-03-17T19:17:37.377Z,6.66
2023-03-17T19:20:10.052Z,6.62
2023-03-17T19:22:40.602Z,6.60
2023-03-17T19:25:12.193Z,6.57
2023-03-17T19:27:42.536Z,6.53
2023-03-17T19:30:14.851Z,6.50
2023-03-17T19:32:45.146Z,6.46
2023-03-17T19:35:15.538Z,6.41
2023-03-17T19:37:53.378Z,6.37
2023-03-17T19:40:23.986Z,6.31
2023-03-17T19:42:54.372Z,6.26
2023-03-17T19:45:26.108Z,6.20
2023-03-17T19:47:56.610Z,6.13
2023-03-17T19:50:29.243Z,6.08
2023-03-17T19:53:00.461Z,6.02
2023-03-17T19:55:31.918Z,5.97
2023-03-17T19:58:04.533Z,5.91
2023-03-17T20:00:42.582Z,5.87
2023-03-17T20:03:15.194Z,5.82
2023-03-17T20:05:47.375Z,5.76
2023-03-17T20:08:19.241Z,5.71
2023-03-17T20:10:54.121Z,5.65
2023-03-17T20:13:25.705Z,5.60
2023-03-17T20:15:56.217Z,5.56
2023-03-17T20:18:27.029Z,5.51
2023-03-17T20:21:00.213Z,5.47
2023-03-17T20:23:32.904Z,5.44
2023-03-17T20:26:12.264Z,5.41
2023-03-17T20:28:43.183Z,5.38
2023-03-17T20:31:13.931Z,5.34
2023-03-17T20:33:44.299Z,5.32
2023-03-17T20:36:15.084Z,5.26
2023-03-17T20:38:49.626Z,5.23
2023-03-17T20:41:21.064Z,5.21
2023-03-17T20:43:52.033Z,5.19
2023-03-17T20:46:25.124Z,5.18
2023-03-17T20:48:58.868Z,5.17
2023-03-17T20:51:32.989Z,5.16
2023-03-17T20:54:03.821Z,5.13
2023-03-17T20:56:34.767Z,5.12
2023-03-17T20:59:05.900Z,5.12
2023-03-17T21:01:38.649Z,5.11
2023-03-17T21:04:09.952Z,5.10
2023-03-17T21:06:42.007Z,5.09
2023-03-17T21:09:13.251Z,5.07
2023-03-17T21:11:43.682Z,5.06
2023-03-17T21:14:15.250Z,5.05
2023-03-17T21:16:47.357Z,5.03
2023-03-17T21:19:19.641Z,5.01
2023-03-17T21:21:49.967Z,5.00
2023-03-17T21:24:31.320Z,4.97
2023-03-17T21:27:05.239Z,4.96
2023-03-17T21:29:37.271Z,4.91
2023-03-17T21:32:08.433Z,4.88
2023-03-17T21:34:41.209Z,4.85
2023-03-17T21:37:11.966Z,4.81
2023-03-17T21:39:42.332Z,4.76
2023-03-17T21:42:13.734Z,4.76
2023-03-17T21:44:46.049Z,4.74
2023-03-17T21:47:18.289Z,4.73
2023-03-17T21:49:49.090Z,4.71
2023-03-17T21:52:20.909Z,4.67
2023-03-17T21:54:51.498Z,4.64
2023-03-17T21:57:22.881Z,4.62
2023-03-17T21:59:53.219Z,4.61
2023-03-17T22:02:24.029Z,4.61
2023-03-17T22:04:55.047Z,4.61
2023-03-17T22:07:26.037Z,4.61
2023-03-17T22:09:58.299Z,4.64
2023-03-17T22:12:28.821Z,4.71
2023-03-17T22:15:00.173Z,4.73
2023-03-17T22:17:30.706Z,4.76
2023-03-17T22:20:02.188Z,4.78
2023-03-17T22:22:35.021Z,4.79
2023-03-17T22:25:06.611Z,4.78
2023-03-17T22:27:37.802Z,4.80
2023-03-17T22:30:10.969Z,4.80
2023-03-17T22:32:44.427Z,4.79
2023-03-17T22:35:15.145Z,4.81
2023-03-17T22:37:45.926Z,4.84
2023-03-17T22:40:16.559Z,4.86
2023-03-17T22:42:47.154Z,4.89
2023-03-17T22:45:18.003Z,4.90
2023-03-17T22:47:48.468Z,4.91
2023-03-17T22:50:19.791Z,4.94
2023-03-17T22:52:51.011Z,4.95
2023-03-17T22:55:21.627Z,4.96
2023-03-17T22:57:53.052Z,4.97
2023-03-17T23:00:25.872Z,4.98
2023-03-17T23:02:56.336Z,4.94
2023-03-17T23:05:26.916Z,4.90
2023-03-17T23:07:57.578Z,4.84
2023-03-17T23:10:28.562Z,4.78
2023-03-17T23:12:58.893Z,4.74
2023-03-17T23:15:29.461Z,4.69
2023-03-17T23:17:59.956Z,4.65
2023-03-17T23:20:33.516Z,4.61
2023-03-17T23:23:04.341Z,4.57
2023-03-17T23:25:34.740Z,4.54
2023-03-17T23:28:06.900Z,4.55
2023-03-17T23:30:37.815Z,4.54
2023-03-17T23:33:08.315Z,4.52
2023-03-17T23:35:39.820Z,4.51
2023-03-17T23:38:14.576Z,4.49
2023-03-17T23:40:47.587Z,4.47
2023-03-17T23:43:18.072Z,4.46
2023-03-17T23:45:54.046Z,4.46
2023-03-17T23:48:25.192Z,4.43
2023-03-17T23:50:56.269Z,4.39
2023-03-17T23:53:27.994Z,4.33
2023-03-17T23:55:59.283Z,4.27
2023-03-17T23:58:29.826Z,4.21
